Time;durP1;ratioP1;P1;durP2;ratioP2;P2;SDS_P1;SDS_P2;PMS_P1;PMS_P2;Temp;Humidity;BMP_temperature;BMP_pressure;BME280_temperature;BME280_humidity;BME280_pressure;Samples;Min_cycle;Max_cycle;Signal;HPM_P1;HPM_P2
2022/10/29 00:01:02;;;;;;;3.42;2.50;;;;;;;;;;5119415;28;20242;-81
2022/10/29 00:03:31;;;;;;;5.60;2.75;;;;;;;;;;5118928;28;20233;-81
2022/10/29 00:06:00;;;;;;;8.23;3.63;;;;;;;;;;5119112;28;20229;-81
2022/10/29 00:08:30;;;;;;;5.03;2.60;;;;;;;;;;5119240;28;20763;-82
2022/10/29 00:11:05;;;;;;;6.20;2.55;;;;;;;;;;5120927;28;20231;-81
2022/10/29 00:13:32;;;;;;;5.32;3.30;;;;;;;;;;5122318;28;20179;-82
2022/10/29 00:16:00;;;;;;;5.15;3.88;;;;;;;;;;5122253;28;20735;-82
2022/10/29 00:18:27;;;;;;;3.22;2.85;;;;;;;;;;5122706;28;20259;-82
2022/10/29 00:21:02;;;;;;;10.00;4.55;;;;;;;;;;5122360;28;20603;-82
2022/10/29 00:23:30;;;;;;;5.05;2.83;;;;;;;;;;5122090;28;20634;-82
2022/10/29 00:25:58;;;;;;;3.90;3.20;;;;;;;;;;5122485;28;20291;-82
2022/10/29 00:28:26;;;;;;;5.88;2.65;;;;;;;;;;5121557;28;20302;-82
2022/10/29 00:30:54;;;;;;;5.95;2.75;;;;;;;;;;5122619;28;20315;-81
2022/10/29 00:33:22;;;;;;;4.47;3.30;;;;;;;;;;5122315;28;20223;-81
2022/10/29 00:35:57;;;;;;;6.65;2.78;;;;;;;;;;5122313;28;20239;-82
2022/10/29 00:38:26;;;;;;;6.22;2.22;;;;;;;;;;5122189;28;20298;-81
2022/10/29 00:40:54;;;;;;;6.13;3.08;;;;;;;;;;5121916;28;20290;-82
2022/10/29 00:43:24;;;;;;;5.30;2.88;;;;;;;;;;5121893;28;20627;-81
2022/10/29 00:45:54;;;;;;;4.35;2.20;;;;;;;;;;5121932;28;20728;-82
2022/10/29 00:48:23;;;;;;;3.95;2.35;;;;;;;;;;5121665;28;20779;-81
2022/10/29 00:50:50;;;;;;;3.72;2.25;;;;;;;;;;5121927;28;20220;-81
2022/10/29 00:53:22;;;;;;;5.32;2.38;;;;;;;;;;5121321;28;20196;-81
2022/10/29 00:55:51;;;;;;;3.03;2.30;;;;;;;;;;5122726;28;20696;-82
2022/10/29 00:58:20;;;;;;;4.45;2.35;;;;;;;;;;5122630;28;20310;-80
2022/10/29 01:00:47;;;;;;;3.35;2.72;;;;;;;;;;5122625;28;20219;-81
2022/10/29 01:03:15;;;;;;;4.10;2.53;;;;;;;;;;5123058;28;20227;-80
2022/10/29 01:05:42;;;;;;;5.40;2.58;;;;;;;;;;5123011;28;20234;-81
2022/10/29 01:08:11;;;;;;;2.25;1.90;;;;;;;;;;5123495;28;20220;-80
2022/10/29 01:10:51;;;;;;;7.47;3.50;;;;;;;;;;5122246;28;20258;-80
2022/10/29 01:13:35;;;;;;;3.45;2.15;;;;;;;;;;5120522;28;20267;-80
2022/10/29 01:16:11;;;;;;;4.70;1.92;;;;;;;;;;5120659;28;20192;-80
2022/10/29 01:18:43;;;;;;;3.38;2.13;;;;;;;;;;5121006;28;20207;-81
2022/10/29 01:21:41;;;;;;;6.93;2.50;;;;;;;;;;5120309;28;20252;-80
2022/10/29 01:24:52;;;;;;;4.45;2.72;;;;;;;;;;5120040;28;20180;-80
2022/10/29 01:27:49;;;;;;;3.00;1.90;;;;;;;;;;5119576;28;20230;-80
2022/10/29 01:30:23;;;;;;;3.75;2.28;;;;;;;;;;5119449;28;20220;-83
2022/10/29 01:33:04;;;;;;;4.03;3.00;;;;;;;;;;5121701;28;20283;-83
2022/10/29 01:35:40;;;;;;;4.72;2.70;;;;;;;;;;5123018;28;20252;-82
2022/10/29 01:38:17;;;;;;;4.60;3.22;;;;;;;;;;5122332;28;20306;-81
2022/10/29 01:40:50;;;;;;;6.07;2.47;;;;;;;;;;5121137;28;20266;-82
2022/10/29 01:43:23;;;;;;;4.22;2.00;;;;;;;;;;5121903;28;20208;-82
2022/10/29 01:45:55;;;;;;;4.78;2.92;;;;;;;;;;5121144;28;20251;-82
2022/10/29 01:48:29;;;;;;;5.72;3.55;;;;;;;;;;5120561;28;20291;-82
2022/10/29 01:51:00;;;;;;;3.40;2.42;;;;;;;;;;5121207;28;20207;-83
2022/10/29 01:53:29;;;;;;;2.75;2.50;;;;;;;;;;5121654;28;20279;-83
2022/10/29 01:55:56;;;;;;;4.45;2.63;;;;;;;;;;5122039;28;20287;-81
2022/10/29 01:58:25;;;;;;;3.72;2.45;;;;;;;;;;5121926;28;20251;-82
2022/10/29 02:01:01;;;;;;;4.05;2.60;;;;;;;;;;5121738;28;20207;-82
2022/10/29 02:03:39;;;;;;;3.60;2.08;;;;;;;;;;5122031;28;20203;-82
2022/10/29 02:06:15;;;;;;;5.43;2.47;;;;;;;;;;5121527;28;20279;-82
2022/10/29 02:08:50;;;;;;;4.60;3.35;;;;;;;;;;5121107;28;20251;-82
2022/10/29 02:11:23;;;;;;;4.97;2.50;;;;;;;;;;5121465;28;20266;-81
2022/10/29 02:13:57;;;;;;;6.03;2.50;;;;;;;;;;5122267;28;20202;-82
2022/10/29 02:16:25;;;;;;;4.15;2.38;;;;;;;;;;5120740;28;20280;-82
2022/10/29 02:18:54;;;;;;;4.93;2.70;;;;;;;;;;5121329;28;20290;-81
2022/10/29 02:21:22;;;;;;;2.53;1.83;;;;;;;;;;5120322;28;20222;-81
2022/10/29 02:23:49;;;;;;;3.40;2.28;;;;;;;;;;5118631;28;20242;-82
2022/10/29 02:26:17;;;;;;;4.40;2.60;;;;;;;;;;5119119;28;20263;-80
2022/10/29 02:28:45;;;;;;;2.97;2.53;;;;;;;;;;5118649;28;20282;-82
2022/10/29 02:31:12;;;;;;;3.17;1.58;;;;;;;;;;5118739;28;20254;-81
2022/10/29 02:33:40;;;;;;;1.92;1.83;;;;;;;;;;5118552;28;20235;-80
2022/10/29 02:36:09;;;;;;;3.03;2.58;;;;;;;;;;5118929;28;20234;-81
2022/10/29 02:38:37;;;;;;;4.60;2.42;;;;;;;;;;5119009;28;20203;-81
2022/10/29 02:41:05;;;;;;;2.97;2.25;;;;;;;;;;5118861;28;20245;-81
2022/10/29 02:43:32;;;;;;;5.15;2.67;;;;;;;;;;5118643;28;20295;-81
2022/10/29 02:46:16;;;;;;;6.28;2.70;;;;;;;;;;5119169;28;20262;-80
2022/10/29 02:48:44;;;;;;;8.82;2.70;;;;;;;;;;5116066;28;20282;-81
2022/10/29 02:51:14;;;;;;;4.25;2.70;;;;;;;;;;5115664;28;20314;-82
2022/10/29 02:53:41;;;;;;;6.60;3.35;;;;;;;;;;5109818;28;20231;-83
2022/10/29 02:56:10;;;;;;;3.40;2.45;;;;;;;;;;5094796;28;20275;-83
2022/10/29 02:58:37;;;;;;;1.60;1.50;;;;;;;;;;5095243;28;20288;-82
2022/10/29 03:01:06;;;;;;;2.97;2.30;;;;;;;;;;5095133;28;20292;-81
2022/10/29 03:03:34;;;;;;;2.13;1.92;;;;;;;;;;5094858;28;20211;-81
2022/10/29 03:06:01;;;;;;;2.35;2.13;;;;;;;;;;5094719;28;20291;-82
2022/10/29 03:08:30;;;;;;;2.53;2.00;;;;;;;;;;5094633;28;20307;-83
2022/10/29 03:10:57;;;;;;;1.77;1.55;;;;;;;;;;5094986;28;20216;-83
2022/10/29 03:13:25;;;;;;;2.47;2.28;;;;;;;;;;5095032;28;20223;-84
2022/10/29 03:15:52;;;;;;;4.60;2.30;;;;;;;;;;5094959;28;20212;-83
2022/10/29 03:18:20;;;;;;;3.97;2.17;;;;;;;;;;5094635;28;20315;-84
2022/10/29 03:20:47;;;;;;;2.92;2.15;;;;;;;;;;5094539;28;20268;-85
2022/10/29 03:23:15;;;;;;;2.72;2.45;;;;;;;;;;5096197;28;20729;-84
2022/10/29 03:25:43;;;;;;;1.58;1.45;;;;;;;;;;5114546;28;20447;-84
2022/10/29 03:28:11;;;;;;;1.70;1.60;;;;;;;;;;5114257;28;20763;-84
2022/10/29 03:30:38;;;;;;;1.88;1.55;;;;;;;;;;5114636;28;20743;-83
2022/10/29 03:33:06;;;;;;;3.25;2.63;;;;;;;;;;5114437;28;20286;-84
2022/10/29 03:35:33;;;;;;;1.98;1.50;;;;;;;;;;5114412;28;20294;-84
2022/10/29 03:38:01;;;;;;;3.67;1.75;;;;;;;;;;5114337;28;20219;-83
2022/10/29 03:40:28;;;;;;;5.88;3.55;;;;;;;;;;5114724;28;20200;-83
2022/10/29 03:42:57;;;;;;;3.83;2.08;;;;;;;;;;5115020;28;20200;-83
2022/10/29 03:45:25;;;;;;;2.78;2.00;;;;;;;;;;5115829;28;20203;-83
2022/10/29 03:47:52;;;;;;;4.70;2.60;;;;;;;;;;5118666;28;20233;-83
2022/10/29 03:50:20;;;;;;;2.53;2.30;;;;;;;;;;5118524;28;20245;-82
2022/10/29 03:52:47;;;;;;;5.85;3.47;;;;;;;;;;5119052;28;20223;-82
2022/10/29 03:55:15;;;;;;;2.80;2.22;;;;;;;;;;5117623;28;20295;-82
2022/10/29 03:57:42;;;;;;;1.65;1.55;;;;;;;;;;5119196;28;20240;-83
2022/10/29 04:00:13;;;;;;;2.03;1.85;;;;;;;;;;5118126;28;20286;-82
2022/10/29 04:02:40;;;;;;;4.18;2.03;;;;;;;;;;5118721;28;20196;-83
2022/10/29 04:05:09;;;;;;;1.48;1.30;;;;;;;;;;5118771;28;20210;-82
2022/10/29 04:07:36;;;;;;;2.70;2.30;;;;;;;;;;5118464;28;20291;-83
2022/10/29 04:10:04;;;;;;;3.08;1.90;;;;;;;;;;5118638;28;20290;-82
2022/10/29 04:12:32;;;;;;;4.93;2.50;;;;;;;;;;5118473;28;20311;-82
2022/10/29 04:14:59;;;;;;;3.58;2.70;;;;;;;;;;5118420;28;20241;-83
2022/10/29 04:17:28;;;;;;;4.40;2.50;;;;;;;;;;5118113;28;20333;-82
2022/10/29 04:19:56;;;;;;;3.53;2.70;;;;;;;;;;5118268;28;20698;-82
2022/10/29 04:22:23;;;;;;;2.28;2.08;;;;;;;;;;5118070;28;20238;-84
2022/10/29 04:24:51;;;;;;;1.80;1.70;;;;;;;;;;5118044;28;20640;-84
2022/10/29 04:27:18;;;;;;;2.33;2.03;;;;;;;;;;5118057;28;20219;-84
2022/10/29 04:29:46;;;;;;;4.07;2.10;;;;;;;;;;5117934;28;20227;-84
2022/10/29 04:32:13;;;;;;;2.28;1.75;;;;;;;;;;5117445;28;20311;-85
2022/10/29 04:34:42;;;;;;;3.38;2.42;;;;;;;;;;5117975;28;20234;-84
2022/10/29 04:37:09;;;;;;;4.97;2.40;;;;;;;;;;5118000;28;20311;-85
2022/10/29 04:39:37;;;;;;;3.08;2.53;;;;;;;;;;5117675;28;20213;-85
2022/10/29 04:42:04;;;;;;;2.35;1.98;;;;;;;;;;5117563;28;20250;-83
2022/10/29 04:44:32;;;;;;;2.45;1.98;;;;;;;;;;5117176;28;20200;-85
2022/10/29 04:46:59;;;;;;;5.50;2.63;;;;;;;;;;5117799;28;20259;-83
2022/10/29 04:49:27;;;;;;;4.00;3.25;;;;;;;;;;5117196;28;20624;-83
2022/10/29 04:51:56;;;;;;;5.30;3.42;;;;;;;;;;5118032;28;20741;-82
2022/10/29 04:54:23;;;;;;;6.10;3.33;;;;;;;;;;5117870;28;20311;-82
2022/10/29 04:56:51;;;;;;;3.60;3.08;;;;;;;;;;5117533;28;20730;-82
2022/10/29 04:59:18;;;;;;;4.65;3.00;;;;;;;;;;5117533;28;20711;-82
2022/10/29 05:01:45;;;;;;;4.18;2.40;;;;;;;;;;5116867;28;20223;-83
2022/10/29 05:04:13;;;;;;;6.28;2.97;;;;;;;;;;5117125;28;20345;-81
2022/10/29 05:06:40;;;;;;;3.15;2.42;;;;;;;;;;5117483;28;20306;-82
2022/10/29 05:09:09;;;;;;;2.58;2.15;;;;;;;;;;5117251;28;20195;-82
2022/10/29 05:11:37;;;;;;;6.78;4.28;;;;;;;;;;5117652;28;20203;-82
2022/10/29 05:14:04;;;;;;;3.88;3.20;;;;;;;;;;5117319;28;20290;-82
2022/10/29 05:16:32;;;;;;;3.47;2.60;;;;;;;;;;5116590;28;20223;-82
2022/10/29 05:19:00;;;;;;;2.33;2.10;;;;;;;;;;5117045;28;20663;-83
2022/10/29 05:21:27;;;;;;;2.47;2.15;;;;;;;;;;5117389;28;20205;-84
2022/10/29 05:23:55;;;;;;;2.58;2.15;;;;;;;;;;5116429;28;20246;-86
2022/10/29 05:26:23;;;;;;;2.72;1.63;;;;;;;;;;5115505;28;20263;-84
2022/10/29 05:28:51;;;;;;;2.50;2.10;;;;;;;;;;5116725;28;20358;-84
2022/10/29 05:31:19;;;;;;;2.38;1.65;;;;;;;;;;5116561;28;20565;-85
2022/10/29 05:33:46;;;;;;;2.47;1.52;;;;;;;;;;5116611;28;20309;-84
2022/10/29 05:36:14;;;;;;;3.65;1.52;;;;;;;;;;5116651;28;20290;-84
2022/10/29 05:38:41;;;;;;;3.08;2.10;;;;;;;;;;5116693;28;20286;-84
2022/10/29 05:41:09;;;;;;;2.20;2.08;;;;;;;;;;5117297;28;20263;-84
2022/10/29 05:43:38;;;;;;;2.45;1.92;;;;;;;;;;5117656;28;20234;-84
2022/10/29 05:46:05;;;;;;;1.90;1.52;;;;;;;;;;5116018;28;20698;-83
2022/10/29 05:48:33;;;;;;;2.15;1.63;;;;;;;;;;5116347;28;20310;-84
2022/10/29 05:51:00;;;;;;;2.50;1.83;;;;;;;;;;5116459;28;20691;-83
2022/10/29 05:53:28;;;;;;;3.50;2.40;;;;;;;;;;5112726;28;20679;-84
2022/10/29 05:55:55;;;;;;;3.92;2.20;;;;;;;;;;5096315;28;20204;-82
2022/10/29 05:58:23;;;;;;;2.47;2.28;;;;;;;;;;5096557;28;20307;-82
2022/10/29 06:00:52;;;;;;;2.88;2.28;;;;;;;;;;5096527;28;20196;-83
2022/10/29 06:03:22;;;;;;;2.10;1.95;;;;;;;;;;5096997;28;20232;-82
2022/10/29 06:05:50;;;;;;;2.50;2.30;;;;;;;;;;5096962;28;20222;-82
2022/10/29 06:08:18;;;;;;;2.53;1.88;;;;;;;;;;5096535;28;20226;-82
2022/10/29 06:10:46;;;;;;;3.65;2.08;;;;;;;;;;5097694;28;20291;-83
2022/10/29 06:13:15;;;;;;;2.58;1.95;;;;;;;;;;5095853;28;20311;-82
2022/10/29 06:15:42;;;;;;;3.08;1.77;;;;;;;;;;5095673;28;20236;-82
2022/10/29 06:18:11;;;;;;;2.92;2.22;;;;;;;;;;5094862;28;20252;-81
2022/10/29 06:20:40;;;;;;;1.73;1.60;;;;;;;;;;5095643;28;20545;-82
2022/10/29 06:23:07;;;;;;;1.42;1.33;;;;;;;;;;5095333;28;20287;-81
2022/10/29 06:25:35;;;;;;;1.95;1.48;;;;;;;;;;5095672;28;20291;-82
2022/10/29 06:28:04;;;;;;;2.00;1.80;;;;;;;;;;5095297;28;20243;-84
2022/10/29 06:30:33;;;;;;;3.65;2.88;;;;;;;;;;5094686;28;20201;-84
2022/10/29 06:33:01;;;;;;;2.47;2.00;;;;;;;;;;5094909;28;20292;-84
2022/10/29 06:35:30;;;;;;;2.00;1.77;;;;;;;;;;5094973;28;20200;-84
2022/10/29 06:37:58;;;;;;;2.25;2.05;;;;;;;;;;5095408;28;20306;-84
2022/10/29 06:40:25;;;;;;;2.40;1.92;;;;;;;;;;5094877;28;20730;-82
2022/10/29 06:42:59;;;;;;;2.63;1.77;;;;;;;;;;5095673;28;20562;-83
2022/10/29 06:45:27;;;;;;;1.85;1.75;;;;;;;;;;5094694;28;20192;-83
2022/10/29 06:47:55;;;;;;;3.17;2.22;;;;;;;;;;5094719;28;20228;-84
2022/10/29 06:50:22;;;;;;;3.05;2.75;;;;;;;;;;5095103;28;20200;-83
2022/10/29 06:52:59;;;;;;;1.75;1.63;;;;;;;;;;5095173;28;20316;-84
2022/10/29 06:55:26;;;;;;;3.28;2.00;;;;;;;;;;5115305;28;20200;-84
2022/10/29 06:57:59;;;;;;;1.92;1.70;;;;;;;;;;5114462;28;20755;-81
2022/10/29 07:00:26;;;;;;;2.10;1.70;;;;;;;;;;5115440;28;20205;-82
2022/10/29 07:02:54;;;;;;;1.83;1.73;;;;;;;;;;5115382;28;20195;-81
2022/10/29 07:05:22;;;;;;;2.15;1.92;;;;;;;;;;5114842;28;20282;-81
2022/10/29 07:07:50;;;;;;;6.70;3.67;;;;;;;;;;5115464;28;20315;-80
2022/10/29 07:10:19;;;;;;;3.03;2.70;;;;;;;;;;5115354;28;20716;-82
2022/10/29 07:12:46;;;;;;;6.38;3.47;;;;;;;;;;5115738;28;20306;-80
2022/10/29 07:15:14;;;;;;;2.15;1.95;;;;;;;;;;5115804;28;20202;-81
2022/10/29 07:17:42;;;;;;;3.08;2.10;;;;;;;;;;5115841;28;20255;-81
2022/10/29 07:20:11;;;;;;;7.82;3.50;;;;;;;;;;5115873;28;20566;-82
2022/10/29 07:22:39;;;;;;;6.38;3.90;;;;;;;;;;5119423;28;20227;-80
2022/10/29 07:25:08;;;;;;;4.53;2.63;;;;;;;;;;5119745;28;20290;-82
2022/10/29 07:27:37;;;;;;;2.83;2.53;;;;;;;;;;5119257;28;20219;-82
2022/10/29 07:30:05;;;;;;;3.17;2.45;;;;;;;;;;5119752;28;20294;-81
2022/10/29 07:32:33;;;;;;;2.90;2.08;;;;;;;;;;5119324;28;20289;-81
2022/10/29 07:35:00;;;;;;;2.50;2.30;;;;;;;;;;5119004;28;20315;-82
2022/10/29 07:37:28;;;;;;;4.47;3.00;;;;;;;;;;5118699;28;20310;-82
2022/10/29 07:39:55;;;;;;;2.63;2.10;;;;;;;;;;5118673;28;20231;-81
2022/10/29 07:42:23;;;;;;;5.38;3.35;;;;;;;;;;5118838;28;20296;-83
2022/10/29 07:44:52;;;;;;;2.42;2.22;;;;;;;;;;5118335;28;20223;-83
2022/10/29 07:47:19;;;;;;;2.65;2.17;;;;;;;;;;5118386;28;20234;-82
2022/10/29 07:49:47;;;;;;;3.05;1.83;;;;;;;;;;5118191;28;20206;-82
2022/10/29 07:52:14;;;;;;;2.25;2.05;;;;;;;;;;5117918;28;20298;-84
2022/10/29 07:54:42;;;;;;;4.00;2.88;;;;;;;;;;5118704;28;20272;-83
2022/10/29 07:57:09;;;;;;;3.55;3.25;;;;;;;;;;5118987;28;20306;-83
2022/10/29 07:59:36;;;;;;;4.05;2.60;;;;;;;;;;5119038;28;20286;-83
2022/10/29 08:02:05;;;;;;;3.90;2.92;;;;;;;;;;5118571;28;20231;-83
2022/10/29 08:04:33;;;;;;;3.58;2.70;;;;;;;;;;5119340;28;20287;-85
2022/10/29 08:07:00;;;;;;;6.00;2.28;;;;;;;;;;5119681;28;20254;-82
2022/10/29 08:09:28;;;;;;;5.20;3.42;;;;;;;;;;5119787;28;20235;-83
2022/10/29 08:11:55;;;;;;;3.63;2.80;;;;;;;;;;5118594;28;20235;-81
2022/10/29 08:14:23;;;;;;;7.68;2.97;;;;;;;;;;5118323;28;20307;-82
2022/10/29 08:16:52;;;;;;;10.18;3.08;;;;;;;;;;5118557;28;20708;-82
2022/10/29 08:19:21;;;;;;;3.70;3.00;;;;;;;;;;5118803;28;20674;-82
2022/10/29 08:21:49;;;;;;;3.15;2.53;;;;;;;;;;5118799;28;20295;-82
2022/10/29 08:24:17;;;;;;;3.05;2.78;;;;;;;;;;5108220;28;20643;-82
2022/10/29 08:26:45;;;;;;;5.45;2.50;;;;;;;;;;5098965;28;20689;-81
2022/10/29 08:29:12;;;;;;;4.35;3.10;;;;;;;;;;5098116;28;20303;-82
2022/10/29 08:31:40;;;;;;;2.55;2.30;;;;;;;;;;5097980;28;20704;-82
2022/10/29 08:34:07;;;;;;;4.70;3.33;;;;;;;;;;5098591;28;20587;-82
2022/10/29 08:36:36;;;;;;;4.82;3.47;;;;;;;;;;5098542;28;20284;-82
2022/10/29 08:39:04;;;;;;;4.07;3.03;;;;;;;;;;5097937;28;20227;-82
2022/10/29 08:41:39;;;;;;;4.15;2.45;;;;;;;;;;5097534;28;20204;-82
2022/10/29 08:44:37;;;;;;;7.82;4.70;;;;;;;;;;5098871;28;20263;-82
2022/10/29 08:47:12;;;;;;;6.00;3.33;;;;;;;;;;5098210;28;20230;-86
2022/10/29 08:49:43;;;;;;;3.70;3.08;;;;;;;;;;5097118;28;20204;-86
2022/10/29 08:52:18;;;;;;;4.03;2.92;;;;;;;;;;5097480;28;20204;-86
2022/10/29 08:54:50;;;;;;;5.68;2.45;;;;;;;;;;5098847;28;20684;-85
2022/10/29 08:57:21;;;;;;;3.17;2.88;;;;;;;;;;5098300;28;20635;-86
2022/10/29 09:00:02;;;;;;;6.32;3.42;;;;;;;;;;5097079;28;20196;-86
2022/10/29 09:02:30;;;;;;;5.80;3.28;;;;;;;;;;5097829;28;20215;-86
2022/10/29 09:04:58;;;;;;;7.18;3.70;;;;;;;;;;5097371;28;20227;-86
2022/10/29 09:07:54;;;;;;;3.35;2.88;;;;;;;;;;5097602;28;20723;-86
2022/10/29 09:10:28;;;;;;;5.72;4.00;;;;;;;;;;5095451;28;20200;-86
2022/10/29 09:13:15;;;;;;;5.25;3.65;;;;;;;;;;5096382;28;20632;-86
2022/10/29 09:16:20;;;;;;;4.03;3.65;;;;;;;;;;5096876;28;20291;-86
2022/10/29 09:19:02;;;;;;;6.18;3.10;;;;;;;;;;5084664;28;20192;-86
2022/10/29 09:21:36;;;;;;;14.68;4.95;;;;;;;;;;5097387;28;20712;-86
2022/10/29 09:24:15;;;;;;;4.22;3.17;;;;;;;;;;5096380;28;20208;-86
2022/10/29 09:26:58;;;;;;;4.72;2.38;;;;;;;;;;5096135;28;20258;-86
2022/10/29 09:30:00;;;;;;;7.93;4.00;;;;;;;;;;5097657;28;20211;-86
2022/10/29 09:32:33;;;;;;;2.80;2.40;;;;;;;;;;5097154;28;20563;-86
2022/10/29 09:35:03;;;;;;;5.63;2.90;;;;;;;;;;5096659;28;20705;-85
2022/10/29 09:37:39;;;;;;;3.55;2.35;;;;;;;;;;5096432;28;20311;-86
2022/10/29 09:40:18;;;;;;;3.70;2.85;;;;;;;;;;5097167;28;20290;-86
2022/10/29 09:42:49;;;;;;;7.90;4.43;;;;;;;;;;5095654;28;20207;-86
2022/10/29 09:45:20;;;;;;;6.70;2.85;;;;;;;;;;5096624;28;20176;-87
2022/10/29 09:48:02;;;;;;;6.57;3.00;;;;;;;;;;5096471;28;20224;-86
2022/10/29 09:50:35;;;;;;;5.38;3.92;;;;;;;;;;5096980;28;20188;-87
2022/10/29 09:53:07;;;;;;;3.95;3.47;;;;;;;;;;5097013;28;20267;-88
2022/10/29 09:55:40;;;;;;;3.17;2.88;;;;;;;;;;5117190;28;20204;-87
2022/10/29 09:58:10;;;;;;;5.00;3.53;;;;;;;;;;5116977;28;20243;-86
2022/10/29 10:00:40;;;;;;;4.88;3.90;;;;;;;;;;5117125;28;20190;-86
2022/10/29 10:03:19;;;;;;;3.58;2.13;;;;;;;;;;5116800;28;20195;-85
2022/10/29 10:06:07;;;;;;;9.45;3.90;;;;;;;;;;5117245;28;20273;-87
2022/10/29 10:08:36;;;;;;;3.80;2.33;;;;;;;;;;5117101;28;20255;-86
2022/10/29 10:11:07;;;;;;;4.18;2.38;;;;;;;;;;5116602;28;20287;-87
2022/10/29 10:13:51;;;;;;;3.72;2.85;;;;;;;;;;5116999;28;20239;-87
2022/10/29 10:16:28;;;;;;;4.05;2.80;;;;;;;;;;5117223;28;20334;-87
2022/10/29 10:18:56;;;;;;;5.85;3.53;;;;;;;;;;5114614;28;20566;-86
2022/10/29 10:21:29;;;;;;;6.68;2.90;;;;;;;;;;5114709;28;20250;-87
2022/10/29 10:23:58;;;;;;;3.45;2.53;;;;;;;;;;5115787;28;20210;-87
2022/10/29 10:26:38;;;;;;;4.28;2.83;;;;;;;;;;5116304;28;20210;-86
2022/10/29 10:29:15;;;;;;;8.48;4.30;;;;;;;;;;5116443;28;20252;-87
2022/10/29 10:31:53;;;;;;;5.22;4.05;;;;;;;;;;5117136;28;20179;-87
2022/10/29 10:34:23;;;;;;;5.80;3.72;;;;;;;;;;5116335;28;20176;-85
2022/10/29 10:37:09;;;;;;;6.90;3.90;;;;;;;;;;5116845;28;20227;-87
2022/10/29 10:39:44;;;;;;;8.48;3.88;;;;;;;;;;5116152;28;20192;-85
2022/10/29 10:42:27;;;;;;;5.57;3.80;;;;;;;;;;5117008;28;20247;-85
2022/10/29 10:44:59;;;;;;;6.40;3.75;;;;;;;;;;5116965;28;20234;-86
2022/10/29 10:47:29;;;;;;;9.60;4.18;;;;;;;;;;5115559;28;20233;-87
2022/10/29 10:50:18;;;;;;;3.40;3.10;;;;;;;;;;5116583;28;20245;-86
2022/10/29 10:52:46;;;;;;;6.50;4.03;;;;;;;;;;5115361;28;20286;-85
2022/10/29 10:55:22;;;;;;;6.20;4.28;;;;;;;;;;5115154;28;20314;-85
2022/10/29 10:57:59;;;;;;;5.57;4.32;;;;;;;;;;5116871;28;20268;-86
2022/10/29 11:00:27;;;;;;;6.18;4.00;;;;;;;;;;5117505;28;20199;-86
2022/10/29 11:02:59;;;;;;;7.03;4.40;;;;;;;;;;5116022;28;20200;-86
2022/10/29 11:05:31;;;;;;;7.90;4.95;;;;;;;;;;5115078;28;20212;-87
2022/10/29 11:08:06;;;;;;;3.55;3.22;;;;;;;;;;5115700;28;20250;-85
2022/10/29 11:10:40;;;;;;;5.93;4.80;;;;;;;;;;5115623;28;20231;-85
2022/10/29 11:13:15;;;;;;;5.00;3.40;;;;;;;;;;5115782;28;20287;-86
2022/10/29 11:15:51;;;;;;;8.88;3.65;;;;;;;;;;5116195;28;20636;-85
2022/10/29 11:18:24;;;;;;;7.85;4.80;;;;;;;;;;5115634;28;20240;-85
2022/10/29 11:21:01;;;;;;;6.97;3.63;;;;;;;;;;5115734;28;20286;-88
2022/10/29 11:23:40;;;;;;;4.22;3.53;;;;;;;;;;5112348;28;20290;-85
2022/10/29 11:26:12;;;;;;;6.45;4.13;;;;;;;;;;5096045;28;20585;-86
2022/10/29 11:28:49;;;;;;;6.88;3.90;;;;;;;;;;5095165;28;20215;-86
2022/10/29 11:31:25;;;;;;;4.43;3.50;;;;;;;;;;5095689;28;20279;-85
2022/10/29 11:34:03;;;;;;;7.68;3.38;;;;;;;;;;5096108;28;20203;-85
2022/10/29 11:36:40;;;;;;;5.20;3.25;;;;;;;;;;5095218;28;20623;-85
2022/10/29 11:39:16;;;;;;;9.15;4.60;;;;;;;;;;5096276;28;20554;-86
2022/10/29 11:41:51;;;;;;;9.82;4.13;;;;;;;;;;5095503;28;20635;-86
2022/10/29 11:44:24;;;;;;;4.95;4.45;;;;;;;;;;5095446;28;20218;-85
2022/10/29 11:47:10;;;;;;;7.60;3.35;;;;;;;;;;5095724;28;20224;-85
2022/10/29 11:50:08;;;;;;;3.72;3.28;;;;;;;;;;5095793;28;20228;-87
2022/10/29 11:52:46;;;;;;;4.75;3.72;;;;;;;;;;5095817;28;20203;-86
2022/10/29 11:55:27;;;;;;;4.07;2.70;;;;;;;;;;5115074;28;20691;-85
2022/10/29 11:57:58;;;;;;;6.22;2.92;;;;;;;;;;5116298;28;20215;-86
2022/10/29 12:00:31;;;;;;;4.32;3.33;;;;;;;;;;5116247;28;20423;-85
2022/10/29 12:03:39;;;;;;;3.28;2.72;;;;;;;;;;5116040;28;20204;-86
2022/10/29 12:06:16;;;;;;;4.15;2.30;;;;;;;;;;5102251;28;20200;-88
2022/10/29 12:09:05;;;;;;;6.78;3.50;;;;;;;;;;5120018;28;20203;-86
2022/10/29 12:11:39;;;;;;;7.15;3.20;;;;;;;;;;5119899;28;20191;-88
2022/10/29 12:14:20;;;;;;;13.85;2.97;;;;;;;;;;5120286;28;20304;-88
2022/10/29 12:16:57;;;;;;;7.78;4.25;;;;;;;;;;5120695;28;20234;-87
2022/10/29 12:19:37;;;;;;;10.13;4.35;;;;;;;;;;5120352;28;20711;-88
2022/10/29 12:22:20;;;;;;;6.10;3.75;;;;;;;;;;5120858;28;20601;-86
2022/10/29 12:25:03;;;;;;;10.57;3.67;;;;;;;;;;5121263;28;20256;-86
2022/10/29 12:27:41;;;;;;;5.03;3.50;;;;;;;;;;5121184;28;20639;-86
2022/10/29 12:30:11;;;;;;;2.38;2.17;;;;;;;;;;5120895;28;20172;-86
2022/10/29 12:32:52;;;;;;;4.63;2.60;;;;;;;;;;5121107;28;20219;-86
2022/10/29 12:35:27;;;;;;;6.63;3.53;;;;;;;;;;5120222;28;20188;-85
2022/10/29 12:38:24;;;;;;;4.03;2.95;;;;;;;;;;5120640;28;20607;-86
2022/10/29 12:40:58;;;;;;;6.60;4.18;;;;;;;;;;5120166;28;20191;-86
2022/10/29 12:43:30;;;;;;;5.13;3.50;;;;;;;;;;5119925;28;20290;-86
2022/10/29 12:46:08;;;;;;;4.40;3.47;;;;;;;;;;5119463;28;20204;-86
2022/10/29 12:48:46;;;;;;;3.15;2.85;;;;;;;;;;5119009;28;20284;-86
2022/10/29 12:51:19;;;;;;;4.47;2.85;;;;;;;;;;5119239;28;20270;-86
2022/10/29 12:54:12;;;;;;;2.50;2.30;;;;;;;;;;5120270;28;20264;-86
2022/10/29 12:56:40;;;;;;;4.28;3.20;;;;;;;;;;5119206;28;20312;-86
2022/10/29 12:59:35;;;;;;;6.43;3.78;;;;;;;;;;5118729;28;20195;-86
2022/10/29 13:02:29;;;;;;;2.78;2.22;;;;;;;;;;5119254;28;20635;-86
2022/10/29 13:05:35;;;;;;;3.90;2.80;;;;;;;;;;5118037;28;20200;-86
2022/10/29 13:08:33;;;;;;;4.13;2.45;;;;;;;;;;5117650;28;20215;-87
2022/10/29 13:11:00;;;;;;;5.13;3.22;;;;;;;;;;5119018;28;20631;-85
2022/10/29 13:13:56;;;;;;;7.32;4.70;;;;;;;;;;5118379;28;20233;-85
2022/10/29 13:16:43;;;;;;;6.10;4.13;;;;;;;;;;5117056;28;20230;-86
2022/10/29 13:19:37;;;;;;;4.70;3.97;;;;;;;;;;5117967;28;20227;-86
2022/10/29 13:22:43;;;;;;;4.25;3.78;;;;;;;;;;5118655;28;20203;-86
2022/10/29 13:25:41;;;;;;;10.00;5.18;;;;;;;;;;5117891;28;20298;-85
2022/10/29 13:28:51;;;;;;;6.50;4.28;;;;;;;;;;5118425;28;20216;-87
2022/10/29 13:31:48;;;;;;;12.15;4.95;;;;;;;;;;5118030;28;20203;-86
2022/10/29 13:34:57;;;;;;;7.72;3.83;;;;;;;;;;5117880;28;20298;-86
2022/10/29 13:37:51;;;;;;;6.28;4.18;;;;;;;;;;5118507;28;20258;-85
2022/10/29 13:41:08;;;;;;;7.72;4.03;;;;;;;;;;5098987;28;20283;-86
2022/10/29 13:43:36;;;;;;;6.90;4.03;;;;;;;;;;5097756;28;20239;-87
2022/10/29 13:46:46;;;;;;;4.95;3.85;;;;;;;;;;5118458;28;20246;-85
2022/10/29 13:49:26;;;;;;;8.10;3.47;;;;;;;;;;5117969;28;20226;-88
2022/10/29 13:52:00;;;;;;;12.65;4.63;;;;;;;;;;5117893;28;20196;-86
2022/10/29 13:54:37;;;;;;;6.38;4.10;;;;;;;;;;5117901;28;20214;-85
2022/10/29 13:57:08;;;;;;;4.75;3.28;;;;;;;;;;5117187;28;20219;-87
2022/10/29 13:59:42;;;;;;;7.53;4.18;;;;;;;;;;5117530;28;20259;-86
2022/10/29 14:02:29;;;;;;;4.22;2.92;;;;;;;;;;5117843;28;20274;-86
2022/10/29 14:05:12;;;;;;;5.18;2.63;;;;;;;;;;5119052;28;20203;-85
2022/10/29 14:07:50;;;;;;;2.50;2.25;;;;;;;;;;5118559;28;20223;-86
2022/10/29 14:10:24;;;;;;;3.08;2.47;;;;;;;;;;5118296;28;20873;-85
2022/10/29 14:12:57;;;;;;;2.97;2.78;;;;;;;;;;5117805;28;20332;-85
2022/10/29 14:15:26;;;;;;;2.70;2.10;;;;;;;;;;5117979;28;20203;-85
2022/10/29 14:17:53;;;;;;;4.13;2.55;;;;;;;;;;5117581;28;20695;-87
2022/10/29 14:20:27;;;;;;;2.70;2.50;;;;;;;;;;5116829;28;20278;-86
2022/10/29 14:22:55;;;;;;;4.82;2.00;;;;;;;;;;5117235;28;20201;-86
2022/10/29 14:25:44;;;;;;;3.25;2.67;;;;;;;;;;5117026;28;20755;-85
2022/10/29 14:28:18;;;;;;;2.75;2.25;;;;;;;;;;5109883;28;20307;-86
2022/10/29 14:30:46;;;;;;;2.30;2.10;;;;;;;;;;5116132;28;20204;-86
2022/10/29 14:33:29;;;;;;;3.42;2.33;;;;;;;;;;5116873;28;20196;-87
2022/10/29 14:36:07;;;;;;;3.15;2.85;;;;;;;;;;5116212;28;20294;-85
2022/10/29 14:38:41;;;;;;;4.05;2.67;;;;;;;;;;5116697;28;20233;-86
2022/10/29 14:41:10;;;;;;;3.03;2.83;;;;;;;;;;5116601;28;20241;-85
2022/10/29 14:43:38;;;;;;;2.28;2.08;;;;;;;;;;5116859;28;20664;-86
2022/10/29 14:46:19;;;;;;;4.15;2.75;;;;;;;;;;5115755;28;20207;-85
2022/10/29 14:48:56;;;;;;;3.47;2.95;;;;;;;;;;5115232;28;20291;-81
2022/10/29 14:51:24;;;;;;;3.10;2.42;;;;;;;;;;5115405;28;20205;-81
2022/10/29 14:54:01;;;;;;;6.45;2.72;;;;;;;;;;5116006;28;20630;-82
2022/10/29 14:56:35;;;;;;;2.70;2.40;;;;;;;;;;5115885;28;20188;-81
2022/10/29 14:59:10;;;;;;;4.15;3.25;;;;;;;;;;5115643;28;20229;-81
2022/10/29 15:01:46;;;;;;;3.72;2.22;;;;;;;;;;5115778;28;20198;-81
2022/10/29 15:04:29;;;;;;;6.65;3.58;;;;;;;;;;5115869;28;20187;-81
2022/10/29 15:07:28;;;;;;;3.97;3.65;;;;;;;;;;5115336;28;20311;-82
2022/10/29 15:10:18;;;;;;;4.60;3.33;;;;;;;;;;5115867;28;20199;-82
2022/10/29 15:12:48;;;;;;;2.90;2.60;;;;;;;;;;5115848;28;20199;-81
2022/10/29 15:15:25;;;;;;;3.88;2.65;;;;;;;;;;5115424;28;20199;-82
2022/10/29 15:17:57;;;;;;;3.85;2.83;;;;;;;;;;5115464;28;20223;-82
2022/10/29 15:20:29;;;;;;;5.00;3.83;;;;;;;;;;5115357;28;20199;-84